Time;durP1;ratioP1;P1;durP2;ratioP2;P2;SDS_P1;SDS_P2;PMS_P1;PMS_P2;Temp;Humidity;BMP_temperature;BMP_pressure;BME280_temperature;BME280_humidity;BME280_pressure;Samples;Min_cycle;Max_cycle;Signal;HPM_P1;HPM_P2
2021/05/23 00:02:28;;;;;;;4.30;1.33;;;;;;;;;;10279955;28;20041;-65
2021/05/23 00:07:27;;;;;;;2.57;1.50;;;;;;;;;;10261585;28;20403;-65
2021/05/23 00:12:24;;;;;;;4.60;0.90;;;;;;;;;;10282123;28;20034;-65
2021/05/23 00:17:22;;;;;;;5.43;1.30;;;;;;;;;;10275933;28;21116;-66
2021/05/23 00:22:20;;;;;;;3.80;0.60;;;;;;;;;;10255528;28;20083;-65
2021/05/23 00:27:17;;;;;;;6.40;1.47;;;;;;;;;;10275321;28;20507;-64
2021/05/23 00:32:17;;;;;;;2.43;1.13;;;;;;;;;;10264665;28;20521;-69
2021/05/23 00:37:14;;;;;;;7.65;1.48;;;;;;;;;;10260064;28;20399;-65
2021/05/23 00:42:11;;;;;;;9.07;1.20;;;;;;;;;;10272741;28;20052;-65
2021/05/23 00:47:09;;;;;;;5.83;0.97;;;;;;;;;;10285284;28;20120;-66
2021/05/23 00:52:07;;;;;;;5.87;1.57;;;;;;;;;;10280225;28;20414;-65
2021/05/23 00:57:04;;;;;;;0.53;0.43;;;;;;;;;;10288827;28;20499;-66
2021/05/23 01:02:08;;;;;;;2.93;1.30;;;;;;;;;;10276477;28;20026;-65
2021/05/23 01:07:06;;;;;;;4.13;1.30;;;;;;;;;;10249149;28;20400;-65
2021/05/23 01:12:21;;;;;;;4.20;1.40;;;;;;;;;;10272168;28;20042;-66
2021/05/23 01:17:20;;;;;;;5.50;1.52;;;;;;;;;;10258071;28;20038;-65
2021/05/23 01:22:27;;;;;;;3.35;0.82;;;;;;;;;;10272996;28;20121;-65
2021/05/23 01:27:26;;;;;;;5.07;1.10;;;;;;;;;;10272186;28;20534;-65
2021/05/23 01:32:23;;;;;;;;;;;;;;;;;;10238561;28;20034;-66
2021/05/23 01:37:20;;;;;;;6.35;0.70;;;;;;;;;;10286532;28;19913;-65
2021/05/23 01:42:18;;;;;;;1.87;1.37;;;;;;;;;;10275910;28;20121;-63
2021/05/23 01:47:16;;;;;;;1.40;0.67;;;;;;;;;;10277859;28;20045;-67
2021/05/23 01:52:14;;;;;;;0.77;0.77;;;;;;;;;;10283192;28;20674;-66
2021/05/23 01:57:11;;;;;;;5.07;1.67;;;;;;;;;;10271104;28;20034;-65
2021/05/23 02:02:08;;;;;;;1.27;1.10;;;;;;;;;;10271428;28;20398;-66
2021/05/23 02:07:07;;;;;;;5.60;1.40;;;;;;;;;;10252481;28;20504;-65
2021/05/23 02:12:04;;;;;;;5.10;0.98;;;;;;;;;;10273689;28;20064;-66
2021/05/23 02:17:02;;;;;;;8.33;1.43;;;;;;;;;;10278250;28;20041;-68
2021/05/23 02:22:00;;;;;;;3.00;1.15;;;;;;;;;;10270017;28;20038;-65
2021/05/23 02:26:57;;;;;;;1.23;0.87;;;;;;;;;;10262311;28;20415;-66
2021/05/23 02:31:55;;;;;;;4.13;0.90;;;;;;;;;;10287532;28;20392;-65
2021/05/23 02:36:52;;;;;;;6.97;1.93;;;;;;;;;;10287023;28;20453;-65
2021/05/23 02:41:50;;;;;;;10.70;2.10;;;;;;;;;;10287266;28;20478;-66
2021/05/23 02:46:47;;;;;;;6.20;1.53;;;;;;;;;;10282824;28;20037;-65
2021/05/23 02:51:45;;;;;;;1.83;0.73;;;;;;;;;;10295470;28;20055;-65
2021/05/23 02:56:42;;;;;;;6.50;0.97;;;;;;;;;;10281977;28;20038;-66
2021/05/23 03:01:39;;;;;;;6.43;1.07;;;;;;;;;;10291651;28;20042;-65
2021/05/23 03:06:37;;;;;;;0.70;0.70;;;;;;;;;;10291833;28;20052;-65
2021/05/23 03:11:34;;;;;;;0.60;0.60;;;;;;;;;;10282441;28;20056;-65
2021/05/23 03:16:32;;;;;;;4.97;1.37;;;;;;;;;;10285374;28;20359;-65
2021/05/23 03:21:29;;;;;;;1.37;0.97;;;;;;;;;;10275160;28;20103;-65
2021/05/23 03:26:27;;;;;;;5.10;2.03;;;;;;;;;;10274118;28;20080;-65
2021/05/23 03:31:24;;;;;;;3.67;1.20;;;;;;;;;;10284313;28;20107;-66
2021/05/23 03:36:22;;;;;;;3.63;0.97;;;;;;;;;;10293437;28;20038;-65
2021/05/23 03:41:19;;;;;;;4.70;1.10;;;;;;;;;;10287887;28;20038;-65
2021/05/23 03:46:16;;;;;;;1.47;0.57;;;;;;;;;;10284325;28;20465;-65
2021/05/23 03:51:14;;;;;;;3.40;1.03;;;;;;;;;;10281267;28;20487;-65
2021/05/23 03:56:12;;;;;;;6.70;1.23;;;;;;;;;;10268024;28;20511;-64
2021/05/23 04:01:09;;;;;;;4.00;1.70;;;;;;;;;;10270687;28;20091;-64
2021/05/23 04:06:07;;;;;;;4.77;1.33;;;;;;;;;;10276481;28;20049;-66
2021/05/23 04:11:09;;;;;;;4.87;1.13;;;;;;;;;;10276674;28;20038;-65
2021/05/23 04:16:10;;;;;;;4.65;1.40;;;;;;;;;;10270792;28;20302;-65
2021/05/23 04:21:07;;;;;;;3.92;0.60;;;;;;;;;;10278819;28;20438;-65
2021/05/23 04:26:05;;;;;;;1.30;0.40;;;;;;;;;;10273103;28;20041;-65
2021/05/23 04:31:03;;;;;;;3.37;1.03;;;;;;;;;;10257076;28;20046;-63
2021/05/23 04:36:00;;;;;;;10.10;1.30;;;;;;;;;;10255840;28;20133;-64
2021/05/23 04:40:58;;;;;;;3.73;1.03;;;;;;;;;;10270430;28;20048;-64
2021/05/23 04:45:55;;;;;;;2.10;0.67;;;;;;;;;;10280379;28;20030;-65
2021/05/23 04:50:52;;;;;;;3.67;1.23;;;;;;;;;;10281446;28;20037;-65
2021/05/23 04:55:50;;;;;;;9.63;1.90;;;;;;;;;;10279564;28;20035;-64
2021/05/23 05:00:47;;;;;;;3.73;0.93;;;;;;;;;;10272353;28;20384;-65
2021/05/23 05:05:45;;;;;;;2.03;0.73;;;;;;;;;;10274156;28;20479;-65
2021/05/23 05:10:42;;;;;;;4.57;1.73;;;;;;;;;;10286052;28;20073;-65
2021/05/23 05:15:40;;;;;;;1.37;0.50;;;;;;;;;;10274351;28;20052;-65
2021/05/23 05:20:37;;;;;;;1.83;0.83;;;;;;;;;;10280133;28;20608;-65
2021/05/23 05:25:35;;;;;;;0.67;0.50;;;;;;;;;;10270461;28;20104;-64
2021/05/23 05:30:32;;;;;;;2.83;0.87;;;;;;;;;;10273123;28;20083;-65
2021/05/23 05:35:29;;;;;;;1.87;0.53;;;;;;;;;;10279120;28;20033;-65
2021/05/23 05:40:27;;;;;;;1.30;1.20;;;;;;;;;;10279125;28;20128;-64
2021/05/23 05:45:24;;;;;;;9.40;2.17;;;;;;;;;;10282098;28;20029;-66
2021/05/23 05:50:22;;;;;;;5.03;0.93;;;;;;;;;;10277147;28;20111;-63
2021/05/23 05:55:19;;;;;;;8.77;2.43;;;;;;;;;;10284599;28;20390;-63
2021/05/23 06:00:17;;;;;;;2.07;0.70;;;;;;;;;;10283796;28;20037;-63
2021/05/23 06:05:14;;;;;;;3.00;1.30;;;;;;;;;;10274916;28;20503;-65
2021/05/23 06:10:13;;;;;;;9.00;1.57;;;;;;;;;;10282140;28;20095;-65
2021/05/23 06:15:10;;;;;;;;;;;;;;;;;;10267799;28;20038;-64
2021/05/23 06:20:08;;;;;;;6.28;1.17;;;;;;;;;;10264199;28;20820;-65
2021/05/23 06:25:06;;;;;;;7.23;0.90;;;;;;;;;;10258469;28;20447;-66
2021/05/23 06:30:04;;;;;;;1.23;0.82;;;;;;;;;;10261244;28;20804;-66
2021/05/23 06:35:03;;;;;;;4.07;0.60;;;;;;;;;;10264801;28;20046;-65
2021/05/23 06:40:00;;;;;;;3.03;0.90;;;;;;;;;;10262583;28;20606;-65
2021/05/23 06:44:58;;;;;;;0.93;0.70;;;;;;;;;;10234258;28;20587;-66
2021/05/23 06:49:55;;;;;;;3.33;1.07;;;;;;;;;;10269533;28;20050;-65
2021/05/23 06:54:53;;;;;;;0.80;0.80;;;;;;;;;;10249683;28;20824;-67
2021/05/23 06:59:51;;;;;;;4.60;1.13;;;;;;;;;;10255607;28;20034;-66
2021/05/23 07:04:48;;;;;;;;;;;;;;;;;;10261170;28;20049;-66
2021/05/23 07:09:46;;;;;;;2.08;0.60;;;;;;;;;;10284450;28;19924;-65
2021/05/23 07:14:43;;;;;;;4.00;1.03;;;;;;;;;;10278784;28;20080;-65
2021/05/23 07:19:41;;;;;;;6.83;1.13;;;;;;;;;;10293550;28;21014;-65
2021/05/23 07:24:38;;;;;;;4.83;0.97;;;;;;;;;;10265260;28;20391;-64
2021/05/23 07:29:36;;;;;;;2.73;0.83;;;;;;;;;;10267279;28;20053;-66
2021/05/23 07:34:33;;;;;;;4.63;1.23;;;;;;;;;;10281296;28;20371;-66
2021/05/23 07:39:30;;;;;;;3.27;0.90;;;;;;;;;;10281245;28;20053;-66
2021/05/23 07:44:28;;;;;;;7.13;0.63;;;;;;;;;;10280641;28;20042;-66
2021/05/23 07:49:25;;;;;;;0.40;0.30;;;;;;;;;;10276410;28;20092;-66
2021/05/23 07:54:23;;;;;;;1.50;0.30;;;;;;;;;;10281231;28;20115;-64
2021/05/23 07:59:20;;;;;;;4.23;0.73;;;;;;;;;;10273314;28;20577;-61
2021/05/23 08:04:18;;;;;;;4.80;0.40;;;;;;;;;;10281530;28;20049;-61
2021/05/23 08:09:15;;;;;;;2.90;1.23;;;;;;;;;;10282443;28;20514;-63
2021/05/23 08:14:13;;;;;;;3.60;0.60;;;;;;;;;;10272332;28;20030;-62
2021/05/23 08:19:11;;;;;;;1.15;0.57;;;;;;;;;;10273112;28;20597;-63
2021/05/23 08:24:09;;;;;;;2.33;0.55;;;;;;;;;;10281548;28;20380;-62
2021/05/23 08:29:06;;;;;;;0.35;0.28;;;;;;;;;;10290919;28;20044;-61
2021/05/23 08:34:04;;;;;;;13.93;0.77;;;;;;;;;;10278201;28;20388;-62
2021/05/23 08:39:01;;;;;;;0.77;0.30;;;;;;;;;;10279007;28;20462;-62
2021/05/23 08:43:59;;;;;;;1.50;0.53;;;;;;;;;;10257062;28;20573;-62
2021/05/23 08:48:57;;;;;;;7.03;0.53;;;;;;;;;;10271359;28;20132;-63
2021/05/23 08:53:54;;;;;;;3.38;0.47;;;;;;;;;;10268287;28;20410;-63
2021/05/23 08:58:51;;;;;;;2.20;0.30;;;;;;;;;;10274779;28;20696;-63
2021/05/23 09:03:58;;;;;;;0.40;0.17;;;;;;;;;;10276851;28;20180;-62
2021/05/23 09:08:57;;;;;;;1.88;0.30;;;;;;;;;;10255749;28;20128;-63
2021/05/23 09:13:55;;;;;;;0.52;0.20;;;;;;;;;;10266372;28;20033;-63
2021/05/23 09:18:55;;;;;;;1.02;0.20;;;;;;;;;;10246543;28;20329;-64
2021/05/23 09:23:57;;;;;;;1.10;0.25;;;;;;;;;;10252397;28;20482;-62
2021/05/23 09:29:02;;;;;;;0.15;0.10;;;;;;;;;;10276573;28;20418;-62
2021/05/23 09:33:59;;;;;;;1.23;0.38;;;;;;;;;;10260107;28;20033;-63
2021/05/23 09:39:01;;;;;;;1.67;0.20;;;;;;;;;;10267762;28;20491;-62
2021/05/23 09:44:12;;;;;;;0.22;0.15;;;;;;;;;;10277670;28;20052;-61
2021/05/23 09:49:14;;;;;;;0.30;0.25;;;;;;;;;;10269429;28;20041;-61
2021/05/23 09:54:11;;;;;;;0.20;0.20;;;;;;;;;;10281327;28;20034;-61
2021/05/23 09:59:22;;;;;;;1.13;0.30;;;;;;;;;;10273694;28;20037;-64
2021/05/23 10:04:21;;;;;;;2.35;0.40;;;;;;;;;;10245359;28;21257;-63
2021/05/23 10:09:19;;;;;;;1.45;0.38;;;;;;;;;;10284069;28;20056;-64
2021/05/23 10:14:17;;;;;;;;;;;;;;;;;;10282947;28;20041;-61
2021/05/23 10:19:14;;;;;;;0.83;0.47;;;;;;;;;;10281385;28;20298;-62
2021/05/23 10:24:11;;;;;;;;;;;;;;;;;;10273629;28;20057;-62
2021/05/23 10:29:09;;;;;;;1.50;0.40;;;;;;;;;;10271204;28;19929;-63
2021/05/23 10:34:07;;;;;;;;;;;;;;;;;;10260744;28;20041;-62
2021/05/23 10:39:14;;;;;;;0.52;0.52;;;;;;;;;;10274054;28;19913;-62
2021/05/23 10:44:12;;;;;;;4.45;0.90;;;;;;;;;;10272302;28;20478;-62
2021/05/23 10:49:10;;;;;;;2.80;0.38;;;;;;;;;;10273797;28;20068;-62
2021/05/23 10:54:07;;;;;;;;;;;;;;;;;;10289907;28;20041;-61
2021/05/23 10:59:04;;;;;;;1.37;0.20;;;;;;;;;;10281607;28;20452;-61
2021/05/23 11:04:02;;;;;;;;;;;;;;;;;;10253737;28;20040;-62
2021/05/23 11:09:05;;;;;;;6.97;0.30;;;;;;;;;;10277235;28;20150;-62
2021/05/23 11:14:31;;;;;;;0.47;0.28;;;;;;;;;;10276807;28;20033;-62
2021/05/23 11:19:30;;;;;;;2.30;0.10;;;;;;;;;;10235074;28;20407;-62
2021/05/23 11:24:28;;;;;;;1.25;0.30;;;;;;;;;;10264317;28;20033;-62
2021/05/23 11:29:26;;;;;;;6.35;0.40;;;;;;;;;;10287988;28;20034;-63
2021/05/23 11:34:27;;;;;;;;;;;;;;;;;;10272498;28;20045;-62
2021/05/23 11:39:25;;;;;;;2.45;0.47;;;;;;;;;;10282321;28;20325;-62
2021/05/23 11:44:22;;;;;;;;;;;;;;;;;;10269029;28;20029;-62
2021/05/23 11:49:21;;;;;;;1.20;0.52;;;;;;;;;;10285728;28;19924;-63
2021/05/23 11:54:18;;;;;;;0.60;0.40;;;;;;;;;;10282149;28;20111;-63
2021/05/23 11:59:15;;;;;;;;;;;;;;;;;;10278668;28;20076;-62
2021/05/23 12:04:14;;;;;;;0.50;0.32;;;;;;;;;;10251808;28;20298;-62
2021/05/23 12:09:22;;;;;;;1.98;0.55;;;;;;;;;;10282734;28;20037;-63
2021/05/23 12:14:19;;;;;;;0.82;0.47;;;;;;;;;;10283606;28;20060;-63
2021/05/23 12:19:16;;;;;;;;;;;;;;;;;;10254761;28;20640;-62
2021/05/23 12:24:14;;;;;;;1.13;0.55;;;;;;;;;;10272964;28;19925;-64
2021/05/23 12:29:11;;;;;;;;;;;;;;;;;;10276760;28;20128;-63
2021/05/23 12:34:13;;;;;;;1.95;0.50;;;;;;;;;;10267219;28;20341;-63
2021/05/23 12:39:10;;;;;;;2.38;0.90;;;;;;;;;;10276575;28;20044;-63
2021/05/23 12:44:08;;;;;;;;;;;;;;;;;;10274916;28;20481;-63
2021/05/23 12:49:13;;;;;;;1.13;0.90;;;;;;;;;;10267420;28;19923;-63
2021/05/23 12:54:10;;;;;;;4.65;1.00;;;;;;;;;;10246702;28;20137;-64
2021/05/23 12:59:08;;;;;;;;;;;;;;;;;;10273033;28;20048;-63
2021/05/23 13:04:09;;;;;;;3.75;1.42;;;;;;;;;;10274300;28;20341;-63
2021/05/23 13:09:07;;;;;;;1.50;1.05;;;;;;;;;;10278176;28;20527;-64
2021/05/23 13:14:04;;;;;;;;;;;;;;;;;;10269476;28;20526;-63
2021/05/23 13:19:10;;;;;;;1.05;0.60;;;;;;;;;;10283601;28;19967;-63
2021/05/23 13:24:08;;;;;;;6.35;1.50;;;;;;;;;;10271674;28;20041;-62
2021/05/23 13:29:05;;;;;;;;;;;;;;;;;;10281285;28;20033;-62
2021/05/23 13:34:02;;;;;;;2.05;0.50;;;;;;;;;;10265613;28;19920;-64
2021/05/23 13:39:00;;;;;;;0.88;0.40;;;;;;;;;;10274953;28;20046;-64
2021/05/23 13:43:57;;;;;;;;;;;;;;;;;;10279825;28;20068;-61
2021/05/23 13:48:55;;;;;;;0.28;0.20;;;;;;;;;;10284756;28;19921;-64
2021/05/23 13:53:52;;;;;;;0.27;0.27;;;;;;;;;;10283339;28;20033;-64
2021/05/23 13:58:50;;;;;;;0.88;0.57;;;;;;;;;;10258817;28;20124;-64
2021/05/23 14:03:47;;;;;;;0.63;0.53;;;;;;;;;;10262042;28;20052;-64
2021/05/23 14:08:45;;;;;;;1.43;0.40;;;;;;;;;;10276203;28;21011;-64
2021/05/23 14:13:42;;;;;;;2.50;0.50;;;;;;;;;;10281536;28;20097;-64
2021/05/23 14:18:39;;;;;;;0.30;0.30;;;;;;;;;;10270625;28;20493;-64
2021/05/23 14:23:37;;;;;;;0.97;0.43;;;;;;;;;;10274453;28;20748;-64
2021/05/23 14:28:34;;;;;;;0.23;0.23;;;;;;;;;;10282585;28;20051;-64
2021/05/23 14:33:32;;;;;;;0.32;0.30;;;;;;;;;;10274278;28;20294;-63
2021/05/23 14:38:30;;;;;;;0.28;0.20;;;;;;;;;;10289774;28;20394;-63
2021/05/23 14:43:32;;;;;;;0.20;0.20;;;;;;;;;;10286875;28;20040;-64
2021/05/23 14:48:29;;;;;;;0.57;0.28;;;;;;;;;;10283385;28;20077;-63
2021/05/23 14:53:27;;;;;;;2.17;0.13;;;;;;;;;;10283868;28;20054;-62
2021/05/23 14:58:25;;;;;;;0.67;0.40;;;;;;;;;;10290134;28;20116;-63
2021/05/23 15:03:23;;;;;;;0.30;0.30;;;;;;;;;;10269866;28;20647;-63
2021/05/23 15:08:20;;;;;;;1.55;0.80;;;;;;;;;;10284230;28;20526;-63
2021/05/23 15:13:17;;;;;;;0.50;0.50;;;;;;;;;;10278155;28;20034;-63
2021/05/23 15:18:17;;;;;;;0.80;0.63;;;;;;;;;;10274690;28;20095;-64
2021/05/23 15:23:14;;;;;;;0.20;0.20;;;;;;;;;;10273925;28;20038;-63
2021/05/23 15:33:28;;;;;;;0.55;0.55;;;;;;;;;;10268397;28;21127;-64
2021/05/23 15:38:25;;;;;;;3.10;0.30;;;;;;;;;;10284273;28;20607;-63
2021/05/23 15:43:23;;;;;;;0.80;0.30;;;;;;;;;;10280256;28;20033;-63
2021/05/23 15:48:20;;;;;;;0.20;0.20;;;;;;;;;;10281744;28;20052;-63
2021/05/23 15:53:18;;;;;;;0.33;0.33;;;;;;;;;;10270800;28;20049;-64
2021/05/23 15:58:17;;;;;;;0.95;0.85;;;;;;;;;;10284060;28;20044;-64
2021/05/23 16:03:14;;;;;;;1.75;0.63;;;;;;;;;;10279610;28;20065;-64
2021/05/23 16:08:12;;;;;;;0.50;0.50;;;;;;;;;;10284401;28;20128;-62
2021/05/23 16:13:09;;;;;;;0.10;0.10;;;;;;;;;;10281641;28;20518;-63
2021/05/23 16:18:07;;;;;;;2.93;0.30;;;;;;;;;;10272932;28;21037;-63
2021/05/23 16:23:04;;;;;;;0.30;0.30;;;;;;;;;;10283067;28;20044;-63
2021/05/23 16:28:02;;;;;;;1.13;0.50;;;;;;;;;;10275054;28;20033;-63
2021/05/23 16:32:59;;;;;;;0.30;0.30;;;;;;;;;;10264761;28;20124;-62
2021/05/23 16:37:57;;;;;;;0.57;0.30;;;;;;;;;;10269323;28;20580;-63
2021/05/23 16:42:54;;;;;;;4.43;0.53;;;;;;;;;;10284381;28;20627;-62
2021/05/23 16:47:51;;;;;;;0.67;0.30;;;;;;;;;;10271254;28;20747;-62
2021/05/23 16:52:49;;;;;;;0.47;0.47;;;;;;;;;;10278267;28;20044;-64
2021/05/23 16:57:47;;;;;;;0.47;0.30;;;;;;;;;;10248528;28;20034;-64
2021/05/23 17:02:44;;;;;;;0.37;0.37;;;;;;;;;;10261008;28;20095;-64
2021/05/23 17:07:43;;;;;;;0.30;0.30;;;;;;;;;;10270810;28;20088;-63
2021/05/23 17:12:43;;;;;;;0.90;0.45;;;;;;;;;;10271211;28;20133;-63
2021/05/23 17:17:41;;;;;;;0.68;0.32;;;;;;;;;;10269413;28;20430;-62
2021/05/23 17:22:39;;;;;;;0.57;0.50;;;;;;;;;;10251110;28;20091;-62
2021/05/23 17:27:36;;;;;;;0.80;0.40;;;;;;;;;;10281870;28;20040;-62
2021/05/23 17:32:34;;;;;;;0.60;0.57;;;;;;;;;;10278480;28;20045;-62
2021/05/23 17:37:31;;;;;;;1.07;0.60;;;;;;;;;;10264991;28;20043;-62
2021/05/23 17:42:29;;;;;;;1.00;0.90;;;;;;;;;;10281235;28;20040;-62
2021/05/23 17:47:26;;;;;;;1.80;0.53;;;;;;;;;;10284750;28;20155;-62
2021/05/23 17:52:24;;;;;;;1.10;0.70;;;;;;;;;;10280608;28;20546;-62
2021/05/23 17:57:22;;;;;;;2.00;0.83;;;;;;;;;;10255278;28;20054;-62
2021/05/23 18:02:19;;;;;;;2.63;0.90;;;;;;;;;;10268142;28;20609;-62
2021/05/23 18:07:17;;;;;;;2.33;0.93;;;;;;;;;;10257175;28;20537;-62
2021/05/23 18:12:14;;;;;;;1.10;0.83;;;;;;;;;;10273221;28;20033;-62
2021/05/23 18:17:12;;;;;;;0.73;0.73;;;;;;;;;;10271554;28;20042;-62
2021/05/23 18:22:09;;;;;;;0.93;0.33;;;;;;;;;;10267790;28;20072;-63
2021/05/23 18:27:07;;;;;;;2.17;1.00;;;;;;;;;;10276340;28;20159;-62
2021/05/23 18:32:04;;;;;;;5.33;1.30;;;;;;;;;;10268137;28;21282;-62
2021/05/23 18:37:02;;;;;;;0.90;0.60;;;;;;;;;;10259613;28;20717;-62
2021/05/23 18:42:00;;;;;;;1.93;0.67;;;;;;;;;;10252693;28;20524;-62
2021/05/23 18:46:58;;;;;;;;;;;;;;;;;;10258129;28;20546;-62
2021/05/23 18:51:55;;;;;;;0.30;0.30;;;;;;;;;;10257292;28;20111;-62
2021/05/23 18:56:57;;;;;;;0.83;0.60;;;;;;;;;;10243539;28;20045;-62
2021/05/23 19:01:54;;;;;;;1.08;0.98;;;;;;;;;;10273611;28;20038;-62
2021/05/23 19:06:52;;;;;;;5.33;1.00;;;;;;;;;;10263344;28;20088;-62
2021/05/23 19:11:49;;;;;;;1.10;0.90;;;;;;;;;;10287122;28;20041;-62
2021/05/23 19:16:47;;;;;;;2.20;0.70;;;;;;;;;;10281150;28;21092;-62
2021/05/23 19:21:44;;;;;;;2.33;0.80;;;;;;;;;;10279132;28;20091;-63
2021/05/23 19:26:42;;;;;;;1.03;1.00;;;;;;;;;;10263076;28;20065;-63
2021/05/23 19:31:39;;;;;;;1.30;1.20;;;;;;;;;;10281040;28;20053;-63
2021/05/23 19:36:37;;;;;;;0.50;0.50;;;;;;;;;;10274411;28;20034;-63
2021/05/23 19:41:34;;;;;;;1.13;0.80;;;;;;;;;;10259563;28;20042;-64
2021/05/23 19:46:34;;;;;;;3.57;0.73;;;;;;;;;;10281659;28;20554;-63
2021/05/23 19:51:32;;;;;;;0.60;0.47;;;;;;;;;;10261299;28;20053;-64
2021/05/23 19:56:29;;;;;;;1.30;0.20;;;;;;;;;;10248764;28;20045;-62
2021/05/23 20:01:27;;;;;;;0.77;0.60;;;;;;;;;;10274272;28;20381;-62
2021/05/23 20:06:24;;;;;;;2.37;0.57;;;;;;;;;;10253163;28;20513;-62
2021/05/23 20:11:22;;;;;;;1.33;0.83;;;;;;;;;;10277390;28;20033;-62
2021/05/23 20:16:19;;;;;;;1.97;1.10;;;;;;;;;;10280079;28;20034;-61
2021/05/23 20:21:17;;;;;;;1.57;1.47;;;;;;;;;;10262517;28;21023;-61
2021/05/23 20:26:14;;;;;;;5.20;1.33;;;;;;;;;;10275775;28;20504;-62
2021/05/23 20:31:12;;;;;;;1.00;0.90;;;;;;;;;;10272679;28;20064;-62
2021/05/23 20:36:09;;;;;;;3.13;0.80;;;;;;;;;;10278853;28;21744;-61
2021/05/23 20:41:06;;;;;;;0.97;0.97;;;;;;;;;;10250578;28;20033;-62
2021/05/23 20:46:04;;;;;;;6.47;3.20;;;;;;;;;;10278662;28;20117;-62
2021/05/23 20:51:01;;;;;;;7.93;4.27;;;;;;;;;;10267466;28;20039;-62
2021/05/23 20:55:59;;;;;;;7.73;4.40;;;;;;;;;;10272537;28;20094;-61
2021/05/23 21:00:57;;;;;;;9.40;3.77;;;;;;;;;;10257930;28;20415;-61
2021/05/23 21:05:54;;;;;;;2.47;1.97;;;;;;;;;;10262833;28;20387;-61
2021/05/23 21:10:51;;;;;;;2.90;2.00;;;;;;;;;;10272088;28;20038;-60
2021/05/23 21:15:49;;;;;;;3.03;1.87;;;;;;;;;;10235528;28;20102;-61
2021/05/23 21:20:46;;;;;;;4.07;1.87;;;;;;;;;;10273342;28;20403;-62
2021/05/23 21:25:44;;;;;;;4.10;3.27;;;;;;;;;;10261700;28;20557;-62
2021/05/23 21:30:41;;;;;;;4.07;2.30;;;;;;;;;;10264940;28;20042;-62
2021/05/23 21:35:39;;;;;;;4.10;2.57;;;;;;;;;;10271578;28;20041;-63
2021/05/23 21:40:36;;;;;;;4.27;3.00;;;;;;;;;;10272154;28;20084;-63
2021/05/23 21:45:34;;;;;;;4.90;3.70;;;;;;;;;;10252746;28;20041;-61
2021/05/23 21:50:31;;;;;;;5.17;2.47;;;;;;;;;;10270061;28;20049;-61
2021/05/23 21:55:28;;;;;;;5.43;2.77;;;;;;;;;;10282170;28;20040;-63
2021/05/23 22:00:26;;;;;;;5.80;3.63;;;;;;;;;;10261603;28;20033;-62
2021/05/23 22:05:24;;;;;;;6.10;3.35;;;;;;;;;;10282460;28;20147;-62
2021/05/23 22:10:21;;;;;;;2.67;1.97;;;;;;;;;;10275082;28;20400;-63
2021/05/23 22:15:19;;;;;;;3.57;2.77;;;;;;;;;;10279189;28;20045;-62
2021/05/23 22:20:17;;;;;;;1.07;1.03;;;;;;;;;;10275977;28;20145;-63
2021/05/23 22:25:15;;;;;;;5.45;3.40;;;;;;;;;;10269352;28;20498;-62
2021/05/23 22:30:14;;;;;;;7.22;3.60;;;;;;;;;;10281220;28;20105;-62
2021/05/23 22:35:13;;;;;;;1.95;1.67;;;;;;;;;;10262912;28;20033;-62
2021/05/23 22:40:12;;;;;;;3.50;1.55;;;;;;;;;;10263210;28;20040;-62
2021/05/23 22:45:11;;;;;;;1.45;1.35;;;;;;;;;;10272659;28;20087;-63
2021/05/23 22:50:10;;;;;;;4.78;1.80;;;;;;;;;;10270548;28;20115;-63
2021/05/23 22:55:08;;;;;;;2.08;1.90;;;;;;;;;;10282715;28;20061;-61
2021/05/23 23:00:12;;;;;;;2.53;1.88;;;;;;;;;;10267697;28;20030;-62
2021/05/23 23:05:11;;;;;;;4.03;2.40;;;;;;;;;;10288904;28;20057;-62
2021/05/23 23:10:08;;;;;;;;;;;;;;;;;;10287114;28;20037;-64
2021/05/23 23:15:07;;;;;;;8.32;3.00;;;;;;;;;;10234877;28;19921;-63
2021/05/23 23:20:06;;;;;;;3.03;1.73;;;;;;;;;;10267103;28;20057;-62
2021/05/23 23:25:03;;;;;;;3.40;2.30;;;;;;;;;;10251407;28;20033;-63
2021/05/23 23:30:01;;;;;;;1.93;1.70;;;;;;;;;;10272138;28;20049;-64
2021/05/23 23:34:58;;;;;;;3.80;2.33;;;;;;;;;;10256996;28;20415;-64
2021/05/23 23:39:56;;;;;;;6.57;1.90;;;;;;;;;;10267858;28;20067;-64
2021/05/23 23:44:53;;;;;;;6.00;2.53;;;;;;;;;;10276685;28;20045;-63
2021/05/23 23:49:58;;;;;;;4.00;2.03;;;;;;;;;;10267515;28;20477;-64
2021/05/23 23:54:56;;;;;;;1.60;1.50;;;;;;;;;;10277820;28;20041;-64
2021/05/23 23:59:53;;;;;;;5.03;2.60;;;;;;;;;;10279018;28;20034;-65
